Time;durP1;ratioP1;P1;durP2;ratioP2;P2;SDS_P1;SDS_P2;PMS_P1;PMS_P2;Temp;Humidity;BMP_temperature;BMP_pressure;BME280_temperature;BME280_humidity;BME280_pressure;Samples;Min_cycle;Max_cycle;Signal;HPM_P1;HPM_P2
2022/07/20 00:00:42;;;;;;;0.30;0.30;;;22.80;91.20;;;;;;5079945;28;20064;-71
2022/07/20 00:03:11;;;;;;;0.20;0.20;;;22.80;91.20;;;;;;5078484;28;20500;-70
2022/07/20 00:05:37;;;;;;;0.17;0.17;;;22.80;91.50;;;;;;5085282;28;20040;-70
2022/07/20 00:08:04;;;;;;;0.35;0.35;;;22.80;90.90;;;;;;5092940;28;20464;-69
2022/07/20 00:13:15;;;;;;;0.20;0.20;;;22.80;91.00;;;;;;5077137;28;20588;-70
2022/07/20 00:15:41;;;;;;;0.20;0.20;;;22.60;91.20;;;;;;5075366;28;20091;-70
2022/07/20 00:18:07;;;;;;;0.20;0.20;;;22.60;91.30;;;;;;5073503;28;20508;-72
2022/07/20 00:20:33;;;;;;;0.20;0.20;;;22.50;91.30;;;;;;5055264;28;20041;-73
2022/07/20 00:22:59;;;;;;;0.30;0.30;;;22.50;92.80;;;;;;5055123;28;20059;-72
2022/07/20 00:25:26;;;;;;;0.20;0.20;;;22.40;91.70;;;;;;5075943;28;20040;-72
2022/07/20 00:27:52;;;;;;;0.30;0.30;;;22.20;92.00;;;;;;5089133;28;20123;-72
2022/07/20 00:30:18;;;;;;;0.20;0.20;;;22.30;92.30;;;;;;5071797;28;20079;-71
2022/07/20 00:32:44;;;;;;;0.30;0.30;;;22.20;92.40;;;;;;5073184;28;20158;-71
2022/07/20 00:35:12;;;;;;;0.20;0.20;;;22.20;93.00;;;;;;5058401;28;20548;-70
2022/07/20 00:37:39;;;;;;;0.20;0.20;;;22.10;93.20;;;;;;5086862;28;20078;-72
2022/07/20 00:40:07;;;;;;;0.25;0.25;;;21.90;93.20;;;;;;5054411;28;20500;-72
2022/07/20 00:42:34;;;;;;;0.20;0.20;;;22.00;92.30;;;;;;5090516;28;20047;-72
2022/07/20 00:45:01;;;;;;;0.20;0.20;;;21.80;92.40;;;;;;5090571;28;20036;-73
2022/07/20 00:47:26;;;;;;;0.30;0.30;;;21.90;93.30;;;;;;5075441;28;20045;-74
2022/07/20 00:49:52;;;;;;;0.20;0.20;;;21.80;92.20;;;;;;5084761;28;20028;-72
2022/07/20 00:52:18;;;;;;;0.22;0.22;;;21.70;93.10;;;;;;5087982;28;20504;-71
2022/07/20 00:54:45;;;;;;;0.20;0.20;;;21.70;92.80;;;;;;5080666;28;20097;-73
2022/07/20 00:57:12;;;;;;;0.30;0.30;;;21.80;93.10;;;;;;5083359;28;20069;-71
2022/07/20 00:59:38;;;;;;;0.20;0.20;;;21.70;93.80;;;;;;5071293;28;20072;-72
2022/07/20 01:02:04;;;;;;;0.30;0.30;;;21.70;94.60;;;;;;5077502;28;20032;-72
2022/07/20 01:04:30;;;;;;;1.40;0.77;;;21.50;94.50;;;;;;5084614;28;20048;-72
2022/07/20 01:06:56;;;;;;;0.20;0.20;;;21.50;94.50;;;;;;5079491;28;20524;-71
2022/07/20 01:09:22;;;;;;;0.10;0.10;;;21.50;94.30;;;;;;5079772;28;20094;-72
2022/07/20 01:11:48;;;;;;;0.20;0.20;;;21.30;94.50;;;;;;5071256;28;20052;-71
2022/07/20 01:14:14;;;;;;;0.20;0.20;;;21.30;95.80;;;;;;5073042;28;20046;-74
2022/07/20 01:16:40;;;;;;;0.28;0.28;;;21.30;95.20;;;;;;5070488;28;20563;-73
2022/07/20 01:19:07;;;;;;;0.20;0.20;;;21.20;95.50;;;;;;5088337;28;20067;-71
2022/07/20 01:21:40;;;;;;;0.25;0.25;;;21.10;95.50;;;;;;5090789;28;20466;-71
2022/07/20 01:24:10;;;;;;;0.22;0.22;;;21.10;95.80;;;;;;5078320;28;20051;-73
2022/07/20 01:26:39;;;;;;;0.20;0.20;;;21.00;95.80;;;;;;5053806;28;20675;-73
2022/07/20 01:29:05;;;;;;;0.20;0.20;;;21.00;97.30;;;;;;5087670;28;20050;-72
2022/07/20 01:31:30;;;;;;;0.25;0.25;;;20.90;97.20;;;;;;5072051;28;20131;-70
2022/07/20 01:33:56;;;;;;;0.30;0.30;;;20.90;98.60;;;;;;5072465;28;20044;-69
2022/07/20 01:36:21;;;;;;;0.20;0.20;;;20.80;98.00;;;;;;5077902;28;20068;-73
2022/07/20 01:38:47;;;;;;;0.30;0.30;;;20.80;98.20;;;;;;5079999;28;20042;-73
2022/07/20 01:41:13;;;;;;;0.20;0.20;;;20.70;99.40;;;;;;5071496;28;20465;-70
2022/07/20 01:43:38;;;;;;;0.20;0.20;;;20.60;98.90;;;;;;5089222;28;20043;-71
2022/07/20 01:46:04;;;;;;;;;;;20.60;99.00;;;;;;5072760;28;20043;-71
2022/07/20 01:48:30;;;;;;;0.20;0.20;;;20.60;98.90;;;;;;5073553;28;20300;-72
2022/07/20 01:50:56;;;;;;;0.20;0.20;;;20.40;99.90;;;;;;5090279;28;20040;-70
2022/07/20 01:53:22;;;;;;;0.30;0.30;;;20.40;99.90;;;;;;5077799;28;20497;-73
2022/07/20 01:55:47;;;;;;;;;;;20.30;99.90;;;;;;5070449;28;20355;-70
2022/07/20 01:58:13;;;;;;;0.20;0.20;;;20.30;99.90;;;;;;5079759;28;20377;-71
2022/07/20 02:00:38;;;;;;;;;;;20.20;99.90;;;;;;5081796;28;20036;-72
2022/07/20 02:03:04;;;;;;;0.30;0.30;;;20.10;99.90;;;;;;5075293;28;19923;-71
2022/07/20 02:05:30;;;;;;;0.10;0.10;;;20.00;99.90;;;;;;5079292;28;20047;-73
2022/07/20 02:07:56;;;;;;;;;;;20.10;99.90;;;;;;5078400;28;20393;-70
2022/07/20 02:10:21;;;;;;;0.20;0.20;;;19.90;99.90;;;;;;5074971;28;19916;-71
2022/07/20 02:12:47;;;;;;;;;;;19.80;99.90;;;;;;5083082;28;20047;-72
2022/07/20 02:16:14;;;;;;;0.10;0.10;;;19.80;99.90;;;;;;5076275;28;19920;-71
2022/07/20 02:17:59;;;;;;;0.30;0.30;;;19.80;99.90;;;;;;5090512;28;20503;-72
2022/07/20 02:20:24;;;;;;;0.20;0.20;;;19.70;99.90;;;;;;5075756;28;20141;-71
2022/07/20 02:22:50;;;;;;;0.20;0.20;;;19.70;99.90;;;;;;5090858;28;20052;-70
2022/07/20 02:25:15;;;;;;;;;;;19.70;99.90;;;;;;5073995;28;20040;-70
2022/07/20 02:27:42;;;;;;;0.30;0.30;;;19.40;99.90;;;;;;5084715;28;20011;-70
2022/07/20 02:30:08;;;;;;;0.20;0.20;;;19.50;99.90;;;;;;5085239;28;20039;-72
2022/07/20 02:32:34;;;;;;;0.30;0.30;;;19.50;99.90;;;;;;5071023;28;20457;-71
2022/07/20 02:34:59;;;;;;;0.20;0.20;;;19.40;99.90;;;;;;5080617;28;20123;-72
2022/07/20 02:37:25;;;;;;;;;;;19.30;99.90;;;;;;5087987;28;20812;-71
2022/07/20 02:39:53;;;;;;;0.22;0.22;;;19.40;99.90;;;;;;5070052;28;20361;-70
2022/07/20 02:42:19;;;;;;;0.10;0.10;;;19.30;99.90;;;;;;5086579;28;20469;-71
2022/07/20 02:44:45;;;;;;;0.20;0.20;;;19.20;99.90;;;;;;5074327;28;20055;-73
2022/07/20 02:47:10;;;;;;;;;;;19.30;99.90;;;;;;5078730;28;20478;-71
2022/07/20 02:49:36;;;;;;;0.25;0.25;;;19.20;99.90;;;;;;5095759;28;19990;-70
2022/07/20 02:52:01;;;;;;;;;;;19.00;99.90;;;;;;5081364;28;20044;-72
2022/07/20 02:54:27;;;;;;;0.20;0.20;;;19.10;99.90;;;;;;5077431;28;19920;-72
2022/07/20 02:56:53;;;;;;;;;;;19.10;99.90;;;;;;5089368;28;20114;-70
2022/07/20 02:59:18;;;;;;;0.30;0.30;;;19.10;99.90;;;;;;5074161;28;19980;-71
2022/07/20 03:01:44;;;;;;;;;;;19.00;99.90;;;;;;5086068;28;20047;-72
2022/07/20 03:04:09;;;;;;;0.20;0.20;;;19.00;99.90;;;;;;5073368;28;19939;-73
2022/07/20 03:06:35;;;;;;;;;;;18.80;99.90;;;;;;5089643;28;20043;-72
2022/07/20 03:09:01;;;;;;;0.20;0.20;;;18.90;99.90;;;;;;5089576;28;19915;-71
2022/07/20 03:11:26;;;;;;;;;;;19.00;99.90;;;;;;5087267;28;20086;-73
2022/07/20 03:13:52;;;;;;;0.20;0.20;;;18.90;99.90;;;;;;5073724;28;19916;-73
2022/07/20 03:16:17;;;;;;;;;;;18.70;99.90;;;;;;5081403;28;20152;-72
2022/07/20 03:18:43;;;;;;;0.32;0.32;;;18.70;99.90;;;;;;5083696;28;19917;-73
2022/07/20 03:21:09;;;;;;;;;;;18.90;99.90;;;;;;5071185;28;20029;-71
2022/07/20 03:23:34;;;;;;;0.20;0.20;;;18.80;99.90;;;;;;5069356;28;20334;-70
2022/07/20 03:26:00;;;;;;;;;;;18.90;99.90;;;;;;5076358;28;20461;-72
2022/07/20 03:28:27;;;;;;;0.35;0.35;;;18.90;99.90;;;;;;5093863;28;19916;-70
2022/07/20 03:30:52;;;;;;;0.10;0.10;;;18.80;99.90;;;;;;5078765;28;20481;-71
2022/07/20 03:33:18;;;;;;;;;;;19.00;99.90;;;;;;5074874;28;20048;-72
2022/07/20 03:35:44;;;;;;;0.30;0.30;;;19.10;99.90;;;;;;5073688;28;19919;-71
2022/07/20 03:38:11;;;;;;;;;;;19.30;99.90;;;;;;5077496;28;20041;-72
2022/07/20 03:40:36;;;;;;;0.25;0.25;;;19.30;99.90;;;;;;5069837;28;19924;-73
2022/07/20 03:43:02;;;;;;;;;;;19.60;99.90;;;;;;5069863;28;20044;-70
2022/07/20 03:45:28;;;;;;;0.30;0.30;;;19.60;99.90;;;;;;5079742;28;20491;-72
2022/07/20 03:47:53;;;;;;;;;;;19.60;99.90;;;;;;5083916;28;20390;-71
2022/07/20 03:50:19;;;;;;;0.30;0.30;;;19.70;99.90;;;;;;5079821;28;19921;-71
2022/07/20 03:52:44;;;;;;;;;;;19.70;99.90;;;;;;5074175;28;20115;-72
2022/07/20 03:55:10;;;;;;;0.28;0.28;;;20.00;99.90;;;;;;5081708;28;19924;-73
2022/07/20 03:57:39;;;;;;;0.22;0.22;;;20.00;99.90;;;;;;5086221;28;20037;-73
2022/07/20 04:00:05;;;;;;;0.10;0.10;;;20.00;99.90;;;;;;5087978;28;20061;-72
2022/07/20 04:02:32;;;;;;;0.20;0.20;;;20.20;99.90;;;;;;5076734;28;20044;-73
2022/07/20 04:04:58;;;;;;;0.35;0.35;;;20.10;99.90;;;;;;5073633;28;20178;-73
2022/07/20 04:07:29;;;;;;;0.20;0.20;;;20.40;99.90;;;;;;5076216;28;20116;-71
2022/07/20 04:09:55;;;;;;;0.25;0.25;;;20.50;99.60;;;;;;5083369;28;20803;-71
2022/07/20 04:12:23;;;;;;;0.38;0.38;;;20.40;98.90;;;;;;5084205;28;20051;-71
2022/07/20 04:14:50;;;;;;;0.40;0.40;;;20.50;98.40;;;;;;5077521;28;20044;-71
2022/07/20 04:17:16;;;;;;;0.20;0.20;;;20.50;99.00;;;;;;5077135;28;20063;-70
2022/07/20 04:19:44;;;;;;;0.40;0.40;;;20.50;98.40;;;;;;5075818;28;20047;-73
2022/07/20 04:22:10;;;;;;;0.65;0.65;;;20.60;99.10;;;;;;5082703;28;20033;-73
2022/07/20 04:24:36;;;;;;;0.52;0.52;;;20.60;99.40;;;;;;5085633;28;20109;-74
2022/07/20 04:27:02;;;;;;;0.20;0.20;;;20.60;99.70;;;;;;5078176;28;20052;-68
2022/07/20 04:29:28;;;;;;;0.25;0.25;;;20.60;99.90;;;;;;5073746;28;20147;-72
2022/07/20 04:31:54;;;;;;;0.30;0.30;;;20.70;99.90;;;;;;5078713;28;20119;-72
2022/07/20 04:34:20;;;;;;;;;;;20.60;99.90;;;;;;5079686;28;20048;-71
2022/07/20 04:36:46;;;;;;;0.30;0.30;;;20.80;99.90;;;;;;5082997;28;19916;-71
2022/07/20 04:39:12;;;;;;;0.25;0.25;;;20.80;99.50;;;;;;5077319;28;20424;-71
2022/07/20 04:41:38;;;;;;;0.43;0.43;;;20.80;99.90;;;;;;5087670;28;20398;-72
2022/07/20 04:44:04;;;;;;;0.80;0.80;;;20.90;98.60;;;;;;5078305;28;20044;-72
2022/07/20 04:46:30;;;;;;;0.30;0.30;;;20.90;99.90;;;;;;5077305;28;20044;-71
2022/07/20 04:48:56;;;;;;;1.75;0.60;;;20.90;99.90;;;;;;5090058;28;20036;-71
2022/07/20 04:51:23;;;;;;;0.40;0.40;;;21.00;98.70;;;;;;5064840;28;20460;-71
2022/07/20 04:53:49;;;;;;;0.40;0.40;;;21.20;98.90;;;;;;5079599;28;20101;-70
2022/07/20 04:56:16;;;;;;;0.50;0.50;;;21.00;97.70;;;;;;5090437;28;20432;-71
2022/07/20 04:58:42;;;;;;;0.32;0.32;;;21.40;97.70;;;;;;5085886;28;20036;-73
2022/07/20 05:01:08;;;;;;;0.77;0.77;;;21.40;97.50;;;;;;5059183;28;20797;-71
2022/07/20 05:03:33;;;;;;;1.27;0.55;;;21.50;96.70;;;;;;5084146;28;20047;-71
2022/07/20 05:05:59;;;;;;;;;;;21.50;97.20;;;;;;5077446;28;20047;-71
2022/07/20 05:08:24;;;;;;;0.40;0.40;;;21.60;96.80;;;;;;5088557;28;19969;-71
2022/07/20 05:10:50;;;;;;;0.30;0.30;;;21.70;96.60;;;;;;5060778;28;20424;-73
2022/07/20 05:13:16;;;;;;;0.22;0.22;;;21.70;96.10;;;;;;5088595;28;20044;-71
2022/07/20 05:15:41;;;;;;;0.17;0.17;;;21.80;96.80;;;;;;5075669;28;20047;-70
2022/07/20 05:18:07;;;;;;;0.57;0.57;;;21.90;97.50;;;;;;5073700;28;20041;-70
2022/07/20 05:20:33;;;;;;;0.77;0.77;;;21.90;96.50;;;;;;5076248;28;20036;-70
2022/07/20 05:22:58;;;;;;;0.40;0.40;;;22.00;95.50;;;;;;5078842;28;20032;-71
2022/07/20 05:25:24;;;;;;;1.00;1.00;;;22.00;95.40;;;;;;5085696;28;20066;-70
2022/07/20 05:27:50;;;;;;;0.30;0.30;;;22.10;95.20;;;;;;5080991;28;20103;-70
2022/07/20 05:30:16;;;;;;;1.00;0.40;;;22.20;95.50;;;;;;5076700;28;20055;-70
2022/07/20 05:32:42;;;;;;;0.63;0.63;;;22.20;95.40;;;;;;5063017;28;20445;-71
2022/07/20 05:35:08;;;;;;;0.68;0.68;;;22.20;95.30;;;;;;5082236;28;20044;-71
2022/07/20 05:37:34;;;;;;;0.20;0.20;;;22.30;95.60;;;;;;5077944;28;20096;-72
2022/07/20 05:40:00;;;;;;;1.15;1.05;;;22.40;95.50;;;;;;5075541;28;20124;-70
2022/07/20 05:42:26;;;;;;;0.30;0.30;;;22.50;95.60;;;;;;5077745;28;20040;-70
2022/07/20 05:44:51;;;;;;;0.77;0.60;;;22.60;95.40;;;;;;5071503;28;20051;-70
2022/07/20 05:47:17;;;;;;;0.30;0.30;;;22.70;95.50;;;;;;5075153;28;20052;-71
2022/07/20 05:49:47;;;;;;;0.32;0.32;;;22.70;95.00;;;;;;5080443;28;20048;-71
2022/07/20 05:52:14;;;;;;;0.30;0.30;;;22.90;94.80;;;;;;5081154;28;20059;-72
2022/07/20 05:54:39;;;;;;;0.43;0.43;;;22.90;94.70;;;;;;5078052;28;20048;-71
2022/07/20 05:57:05;;;;;;;0.52;0.50;;;23.00;94.20;;;;;;5070613;28;20036;-72
2022/07/20 05:59:31;;;;;;;0.73;0.73;;;23.00;94.70;;;;;;5075854;28;20092;-72
2022/07/20 06:01:56;;;;;;;0.20;0.20;;;23.00;95.10;;;;;;5079811;28;20060;-72
2022/07/20 06:04:22;;;;;;;0.63;0.63;;;23.00;95.00;;;;;;5075013;28;20052;-72
2022/07/20 06:06:48;;;;;;;0.30;0.30;;;23.10;95.00;;;;;;5087425;28;20059;-70
2022/07/20 06:09:14;;;;;;;0.40;0.30;;;23.20;94.40;;;;;;5080716;28;20092;-70
2022/07/20 06:11:40;;;;;;;0.52;0.52;;;23.30;94.80;;;;;;5071067;28;20101;-70
2022/07/20 06:14:06;;;;;;;0.50;0.50;;;23.40;94.40;;;;;;5070194;28;20044;-71
2022/07/20 06:16:32;;;;;;;0.25;0.25;;;23.50;94.80;;;;;;5073744;28;20165;-72
2022/07/20 06:18:57;;;;;;;0.68;0.60;;;23.50;93.00;;;;;;5082762;28;20489;-71
2022/07/20 06:21:23;;;;;;;0.30;0.30;;;23.70;93.40;;;;;;5071668;28;20119;-70
2022/07/20 06:23:49;;;;;;;0.28;0.28;;;23.90;94.00;;;;;;5074805;28;20380;-71
2022/07/20 06:26:15;;;;;;;0.55;0.55;;;24.00;94.00;;;;;;5077567;28;20040;-70
2022/07/20 06:28:41;;;;;;;1.35;1.25;;;24.10;92.40;;;;;;5071699;28;20112;-70
2022/07/20 06:31:06;;;;;;;0.80;0.80;;;24.20;91.30;;;;;;5089348;28;20119;-69
2022/07/20 06:33:32;;;;;;;0.40;0.40;;;24.40;90.70;;;;;;5082327;28;20070;-70
2022/07/20 06:35:58;;;;;;;0.20;0.20;;;24.50;90.90;;;;;;5089018;28;20036;-70
2022/07/20 06:38:24;;;;;;;0.65;0.50;;;24.80;90.20;;;;;;5084626;28;20094;-71
2022/07/20 06:40:50;;;;;;;0.60;0.60;;;24.90;87.00;;;;;;5068810;28;20040;-70
2022/07/20 06:43:15;;;;;;;0.20;0.20;;;25.10;85.90;;;;;;5078438;28;20367;-70
2022/07/20 06:45:41;;;;;;;1.35;0.82;;;25.10;86.30;;;;;;5074010;28;20126;-72
2022/07/20 06:48:10;;;;;;;0.88;0.88;;;25.40;83.30;;;;;;5071447;28;20044;-72
2022/07/20 06:50:35;;;;;;;0.52;0.52;;;25.50;83.30;;;;;;5083373;28;20032;-71
2022/07/20 06:53:01;;;;;;;1.00;0.60;;;25.70;84.60;;;;;;5078848;28;20078;-70
2022/07/20 06:55:27;;;;;;;1.23;0.75;;;25.80;82.60;;;;;;5081613;28;20127;-71
2022/07/20 06:57:53;;;;;;;0.47;0.47;;;25.90;81.80;;;;;;5070008;28;20202;-71
2022/07/20 07:00:18;;;;;;;0.38;0.38;;;26.10;80.40;;;;;;5084340;28;20051;-71
2022/07/20 07:02:44;;;;;;;0.30;0.30;;;26.20;78.30;;;;;;5081075;28;20088;-70
2022/07/20 07:05:10;;;;;;;0.30;0.30;;;26.30;79.00;;;;;;5075883;28;20393;-71
2022/07/20 07:07:36;;;;;;;0.50;0.45;;;26.40;78.10;;;;;;5076349;28;20119;-70
2022/07/20 07:10:02;;;;;;;1.02;0.73;;;26.60;78.60;;;;;;5068012;28;20045;-70
2022/07/20 07:12:28;;;;;;;2.60;0.65;;;26.70;78.10;;;;;;5080247;28;20424;-71
2022/07/20 07:14:54;;;;;;;0.55;0.55;;;26.70;76.80;;;;;;5075479;28;20052;-70
2022/07/20 07:17:19;;;;;;;0.98;0.68;;;26.80;76.40;;;;;;5079451;28;20052;-71
2022/07/20 07:19:45;;;;;;;0.75;0.75;;;26.90;76.10;;;;;;5074980;28;20041;-71
2022/07/20 07:22:12;;;;;;;0.40;0.40;;;27.00;77.10;;;;;;5078443;28;20465;-70
2022/07/20 07:24:38;;;;;;;0.38;0.38;;;27.10;76.20;;;;;;5079992;28;20055;-71
2022/07/20 07:27:04;;;;;;;0.30;0.30;;;27.20;76.40;;;;;;5089851;28;20035;-70
2022/07/20 07:29:30;;;;;;;0.85;0.68;;;27.30;76.20;;;;;;5082972;28;20079;-72
2022/07/20 07:31:58;;;;;;;2.00;0.55;;;27.50;75.30;;;;;;5083174;28;20048;-70
2022/07/20 07:34:28;;;;;;;0.80;0.73;;;27.60;73.80;;;;;;5085110;28;20041;-70
2022/07/20 07:36:54;;;;;;;0.85;0.85;;;27.70;73.50;;;;;;5079511;28;20068;-71
2022/07/20 07:39:20;;;;;;;0.85;0.85;;;27.60;73.10;;;;;;5090657;28;20069;-71
2022/07/20 07:41:46;;;;;;;0.70;0.70;;;27.60;72.50;;;;;;5080518;28;20043;-70
2022/07/20 07:44:13;;;;;;;0.75;0.68;;;27.60;71.40;;;;;;5073331;28;20055;-72
2022/07/20 07:46:39;;;;;;;0.77;0.77;;;27.70;73.10;;;;;;5063154;28;20086;-71
2022/07/20 07:49:04;;;;;;;0.65;0.65;;;27.60;72.40;;;;;;5077550;28;20442;-70
2022/07/20 07:51:30;;;;;;;0.47;0.47;;;27.70;73.10;;;;;;5084631;28;20063;-70
2022/07/20 07:53:56;;;;;;;0.70;0.70;;;27.80;73.30;;;;;;5081772;28;20036;-71
2022/07/20 07:56:22;;;;;;;1.30;1.00;;;27.80;74.70;;;;;;5082399;28;20473;-71
2022/07/20 07:58:48;;;;;;;0.90;0.77;;;27.80;74.70;;;;;;5095880;28;20047;-71
2022/07/20 08:01:14;;;;;;;0.80;0.80;;;27.90;72.80;;;;;;5082401;28;20093;-72
2022/07/20 08:03:39;;;;;;;0.55;0.52;;;28.00;73.80;;;;;;5075936;28;20040;-71
2022/07/20 08:06:05;;;;;;;0.50;0.50;;;28.10;74.30;;;;;;5073394;28;20037;-70
2022/07/20 08:08:31;;;;;;;0.80;0.80;;;28.20;74.10;;;;;;5064635;28;20464;-70
2022/07/20 08:10:57;;;;;;;2.08;0.82;;;28.30;74.00;;;;;;5090337;28;20044;-71
2022/07/20 08:13:23;;;;;;;0.90;0.75;;;28.30;75.10;;;;;;5074955;28;20059;-70
2022/07/20 08:15:49;;;;;;;0.43;0.43;;;28.30;75.80;;;;;;5074487;28;20052;-71
2022/07/20 08:18:15;;;;;;;1.40;1.27;;;28.40;74.80;;;;;;5086651;28;20049;-71
2022/07/20 08:20:43;;;;;;;1.63;1.23;;;28.50;75.70;;;;;;5084047;28;20400;-70
2022/07/20 08:23:09;;;;;;;2.58;1.30;;;28.50;75.40;;;;;;5085698;28;20068;-71
2022/07/20 08:25:35;;;;;;;2.47;1.23;;;28.30;76.90;;;;;;5085050;28;20078;-72
2022/07/20 08:28:11;;;;;;;1.75;0.73;;;28.30;76.60;;;;;;5079722;28;20124;-69
2022/07/20 08:30:39;;;;;;;1.50;1.35;;;28.20;77.60;;;;;;5080579;28;20493;-70
2022/07/20 08:33:05;;;;;;;1.15;1.02;;;28.30;78.20;;;;;;5088200;28;20047;-70
2022/07/20 08:35:31;;;;;;;0.73;0.73;;;28.30;78.90;;;;;;5084245;28;20170;-71
2022/07/20 08:37:57;;;;;;;0.70;0.63;;;28.40;80.40;;;;;;5072079;28;20104;-69
2022/07/20 08:40:28;;;;;;;1.17;1.00;;;28.40;79.80;;;;;;5080419;28;20423;-70
2022/07/20 08:42:54;;;;;;;1.13;1.02;;;28.40;80.50;;;;;;5057637;28;20080;-70
2022/07/20 08:45:21;;;;;;;1.65;1.55;;;28.40;81.60;;;;;;5055712;28;20117;-70
2022/07/20 08:47:48;;;;;;;1.50;0.93;;;28.40;81.60;;;;;;5072499;28;20056;-73
2022/07/20 08:50:22;;;;;;;2.25;2.05;;;28.50;82.40;;;;;;5086509;28;20040;-74
2022/07/20 08:52:48;;;;;;;3.83;2.05;;;28.50;83.80;;;;;;5078688;28;20168;-71
2022/07/20 08:55:14;;;;;;;1.08;1.00;;;28.50;84.50;;;;;;5077591;28;20111;-70
2022/07/20 08:57:40;;;;;;;13.15;2.55;;;28.50;86.90;;;;;;5092442;28;20067;-71
2022/07/20 09:00:06;;;;;;;18.13;3.20;;;28.50;86.00;;;;;;5086642;28;20055;-71
2022/07/20 09:02:47;;;;;;;3.97;2.97;;;28.50;86.30;;;;;;5071577;28;20076;-71
2022/07/20 09:05:13;;;;;;;3.58;1.60;;;28.60;86.80;;;;;;5077851;28;20039;-72
2022/07/20 09:07:39;;;;;;;2.75;2.13;;;28.70;86.80;;;;;;5074555;28;20432;-72
2022/07/20 09:10:08;;;;;;;3.03;1.60;;;28.70;87.50;;;;;;5071675;28;20480;-70
2022/07/20 09:12:53;;;;;;;1.02;0.75;;;28.80;88.00;;;;;;5082850;28;20047;-71
2022/07/20 09:15:37;;;;;;;2.50;2.15;;;28.70;89.50;;;;;;5080273;28;20068;-70
2022/07/20 09:18:11;;;;;;;2.90;1.75;;;28.70;90.10;;;;;;5073878;28;20040;-69
2022/07/20 09:20:53;;;;;;;4.93;3.00;;;28.70;90.20;;;;;;5072532;28;20517;-70
2022/07/20 09:23:24;;;;;;;4.20;2.55;;;28.80;90.50;;;;;;5085230;28;20036;-70
2022/07/20 09:25:58;;;;;;;3.17;2.28;;;28.90;90.70;;;;;;5071545;28;20075;-70
2022/07/20 09:28:52;;;;;;;2.33;2.10;;;28.90;90.60;;;;;;5078540;28;20378;-70
2022/07/20 09:31:26;;;;;;;1.75;1.52;;;28.90;91.10;;;;;;5083644;28;20056;-71
2022/07/20 09:33:54;;;;;;;3.50;2.83;;;29.00;91.00;;;;;;5085559;28;20120;-70
2022/07/20 09:36:22;;;;;;;1.55;1.45;;;29.00;90.90;;;;;;5084386;28;20104;-72
2022/07/20 09:38:48;;;;;;;3.15;2.83;;;28.90;91.20;;;;;;5077665;28;20466;-69
2022/07/20 09:41:41;;;;;;;2.92;2.60;;;29.00;91.60;;;;;;5076700;28;20089;-71
2022/07/20 09:44:12;;;;;;;2.63;1.95;;;29.00;91.90;;;;;;5060912;28;20434;-71
2022/07/20 09:46:39;;;;;;;5.63;4.70;;;28.80;91.80;;;;;;5056926;28;20124;-70
2022/07/20 09:49:10;;;;;;;3.13;2.85;;;28.80;92.20;;;;;;5078203;28;20086;-73
2022/07/20 09:51:39;;;;;;;3.53;3.20;;;28.70;92.50;;;;;;5081512;28;20036;-70
2022/07/20 09:54:07;;;;;;;2.80;2.08;;;28.80;92.60;;;;;;5060948;28;20091;-70
2022/07/20 09:56:35;;;;;;;4.40;3.33;;;28.90;92.90;;;;;;5081863;28;20101;-71
2022/07/20 09:59:04;;;;;;;2.97;2.42;;;28.80;93.90;;;;;;5072851;28;20416;-70
2022/07/20 10:01:33;;;;;;;3.50;3.15;;;28.80;92.10;;;;;;5074212;28;20051;-71
2022/07/20 10:04:01;;;;;;;4.72;3.15;;;28.80;92.00;;;;;;5062995;28;20213;-69
2022/07/20 10:06:28;;;;;;;2.08;1.77;;;28.70;92.00;;;;;;5083768;28;20059;-70
2022/07/20 10:08:55;;;;;;;2.67;2.47;;;28.90;92.00;;;;;;5079153;28;20036;-70
2022/07/20 10:11:23;;;;;;;2.65;1.92;;;28.90;92.10;;;;;;5078578;28;20048;-70
2022/07/20 10:13:50;;;;;;;3.10;2.47;;;29.00;91.40;;;;;;5077801;28;20044;-70
2022/07/20 10:16:26;;;;;;;3.78;3.15;;;29.20;90.30;;;;;;5084230;28;20063;-71
2022/07/20 10:18:54;;;;;;;;;;;29.30;88.70;;;;;;5075641;28;20044;-70
2022/07/20 10:21:37;;;;;;;2.70;2.20;;;29.30;86.60;;;;;;5080374;28;20026;-71
2022/07/20 10:24:21;;;;;;;3.05;2.63;;;29.30;84.30;;;;;;5076909;28;20136;-71
2022/07/20 10:26:51;;;;;;;;;;;29.20;82.50;;;;;;5087627;28;20571;-72
2022/07/20 10:29:36;;;;;;;;;;;29.00;78.90;;;;;;5071001;28;19963;-71
2022/07/20 10:32:22;;;;;;;3.60;2.83;;;28.90;80.40;;;;;;5072350;28;19916;-69
2022/07/20 10:34:51;;;;;;;1.48;1.35;;;28.90;78.90;;;;;;5073614;28;20055;-71
2022/07/20 10:37:40;;;;;;;1.40;1.30;;;29.00;79.40;;;;;;5069178;28;20044;-73
2022/07/20 10:40:13;;;;;;;3.50;1.58;;;29.10;78.10;;;;;;5079206;28;20048;-73
2022/07/20 10:42:42;;;;;;;8.95;1.92;;;29.20;77.50;;;;;;5087941;28;20721;-72
2022/07/20 10:45:29;;;;;;;2.50;2.08;;;29.20;77.80;;;;;;5074782;28;20111;-75
2022/07/20 10:48:11;;;;;;;1.48;1.38;;;29.20;78.10;;;;;;5071494;28;20045;-70
2022/07/20 10:50:54;;;;;;;1.98;1.77;;;29.10;78.40;;;;;;5081629;28;20170;-70
2022/07/20 10:53:26;;;;;;;2.20;1.65;;;29.20;79.70;;;;;;5080036;28;20036;-71
2022/07/20 10:55:55;;;;;;;2.15;1.83;;;29.30;80.00;;;;;;5070355;28;20474;-70
2022/07/20 10:58:27;;;;;;;2.15;1.77;;;29.40;79.10;;;;;;5081285;28;20052;-69
2022/07/20 11:00:57;;;;;;;3.90;2.22;;;29.40;78.20;;;;;;5082637;28;20063;-70
2022/07/20 11:03:30;;;;;;;3.10;1.73;;;29.30;77.10;;;;;;5080845;28;20134;-69
2022/07/20 11:06:04;;;;;;;2.60;1.98;;;29.30;76.00;;;;;;5087958;28;20066;-70
2022/07/20 11:08:30;;;;;;;2.58;2.17;;;29.40;76.60;;;;;;5086908;28;20044;-71
2022/07/20 11:10:56;;;;;;;3.00;1.70;;;29.40;75.40;;;;;;5073958;28;20355;-70
2022/07/20 11:13:23;;;;;;;2.38;2.17;;;29.50;74.40;;;;;;5075210;28;20044;-70
2022/07/20 11:15:54;;;;;;;2.00;1.70;;;29.40;74.80;;;;;;5086768;28;20170;-70
2022/07/20 11:18:24;;;;;;;2.72;2.35;;;29.40;75.00;;;;;;5074304;28;20049;-70
2022/07/20 11:20:58;;;;;;;2.03;1.85;;;29.40;74.80;;;;;;5076741;28;20036;-69
2022/07/20 11:23:27;;;;;;;2.10;1.27;;;29.40;74.50;;;;;;5082374;28;20431;-69
2022/07/20 11:25:59;;;;;;;3.53;2.42;;;29.50;74.40;;;;;;5072432;28;20127;-70
2022/07/20 11:28:32;;;;;;;8.35;3.20;;;29.60;74.40;;;;;;5072839;28;20078;-70
2022/07/20 11:30:58;;;;;;;2.33;1.73;;;29.70;74.20;;;;;;5081044;28;20073;-68
2022/07/20 11:33:35;;;;;;;3.13;2.42;;;29.70;73.80;;;;;;5088741;28;20488;-71
2022/07/20 11:36:09;;;;;;;2.33;1.95;;;29.80;73.60;;;;;;5077889;28;20071;-69
2022/07/20 11:38:37;;;;;;;2.50;2.15;;;29.90;73.30;;;;;;5084867;28;20065;-70
2022/07/20 11:41:05;;;;;;;1.95;1.55;;;29.80;72.80;;;;;;5072320;28;20043;-70
2022/07/20 11:43:31;;;;;;;1.73;1.63;;;29.80;73.20;;;;;;5072565;28;20036;-70
2022/07/20 11:46:17;;;;;;;1.13;0.80;;;29.80;72.70;;;;;;5072988;28;20033;-69
2022/07/20 11:48:51;;;;;;;1.37;1.27;;;29.90;73.10;;;;;;5074500;28;20032;-71
2022/07/20 11:51:17;;;;;;;1.48;1.38;;;30.00;72.80;;;;;;5074300;28;20628;-70
2022/07/20 11:53:43;;;;;;;1.40;1.30;;;30.00;71.20;;;;;;5073102;28;20041;-70
2022/07/20 11:56:21;;;;;;;1.60;1.50;;;30.10;71.00;;;;;;5070217;28;20148;-71
2022/07/20 11:58:50;;;;;;;1.73;1.42;;;30.10;71.40;;;;;;5075388;28;20036;-71
2022/07/20 12:01:25;;;;;;;1.60;1.17;;;30.20;72.20;;;;;;5081241;28;20374;-73
2022/07/20 12:03:54;;;;;;;3.67;2.07;;;30.20;70.60;;;;;;5069532;28;20048;-71
2022/07/20 12:06:20;;;;;;;4.60;2.05;;;30.30;69.80;;;;;;5069286;28;20048;-71
2022/07/20 12:09:03;;;;;;;2.55;1.75;;;30.40;69.70;;;;;;5077005;28;20040;-72
2022/07/20 12:11:28;;;;;;;1.90;1.73;;;30.50;69.90;;;;;;5071184;28;20056;-72
2022/07/20 12:13:54;;;;;;;1.40;1.30;;;30.60;68.20;;;;;;5088122;28;20055;-73
2022/07/20 12:16:21;;;;;;;1.48;1.23;;;30.60;67.50;;;;;;5068969;28;20057;-71
2022/07/20 12:18:52;;;;;;;1.95;1.75;;;30.40;67.20;;;;;;5069989;28;20394;-73
2022/07/20 12:21:21;;;;;;;0.43;0.43;;;30.40;67.40;;;;;;5069902;28;20119;-73
2022/07/20 12:23:55;;;;;;;1.05;0.95;;;30.50;67.50;;;;;;5070493;28;20488;-72
2022/07/20 12:26:29;;;;;;;2.75;1.77;;;30.70;66.40;;;;;;5073579;28;20535;-74
2022/07/20 12:28:58;;;;;;;0.68;0.68;;;30.90;67.00;;;;;;5069234;28;20087;-77
2022/07/20 12:31:26;;;;;;;1.98;1.63;;;31.10;65.70;;;;;;5080179;28;20083;-72
2022/07/20 12:34:03;;;;;;;2.38;1.25;;;31.20;66.20;;;;;;5061873;28;20056;-71
2022/07/20 12:36:35;;;;;;;2.13;1.63;;;31.30;65.20;;;;;;5084552;28;20055;-71
2022/07/20 12:39:02;;;;;;;1.13;1.02;;;31.30;63.80;;;;;;5073210;28;20040;-69
2022/07/20 12:41:28;;;;;;;2.28;2.08;;;31.20;63.30;;;;;;5088385;28;20062;-75
2022/07/20 12:43:55;;;;;;;1.63;1.52;;;31.10;61.20;;;;;;5088443;28;20040;-75
2022/07/20 12:46:21;;;;;;;1.20;1.10;;;31.00;61.30;;;;;;5088748;28;20101;-71
2022/07/20 12:48:50;;;;;;;1.10;0.98;;;31.00;61.70;;;;;;5068894;28;20108;-68
2022/07/20 12:51:17;;;;;;;1.67;1.30;;;31.00;62.40;;;;;;5069725;28;20048;-68
2022/07/20 12:53:45;;;;;;;1.05;0.88;;;31.00;63.60;;;;;;5081613;28;20384;-73
2022/07/20 12:56:11;;;;;;;1.73;1.15;;;30.80;63.90;;;;;;5064082;28;20039;-75
2022/07/20 12:58:37;;;;;;;1.95;1.55;;;31.00;64.80;;;;;;5052211;28;20048;-71